»·PEaware :: N525SA KCLM-KAST

N525SA :: KCLM-KAST

FLIGHT INFORMATION

Flight Status: Arrived
Operator: Privately registered:
United States
More flights under this callsign
Pilot: Utku A. (15598)
Aircraft: SOCATA TBM-900
(TBM9)
More flights by this aircraft type
Origin: KCLM Fairchild Intl
United States
Destination: KAST Astoria Regl
United States
More flights between these airports :: More routes between these airports
Route: ARRIE T263 ULESS V27 AST
File this flight plan on PilotEdge
Remarks:
Altitude:
(Current/Filed)
15,000ft
Speed:
(Current/Filed)
250kts
Departed: 23-Oct-18 02:00 PM
Arrived: 23-Oct-18 05:35 PM
Distance/Time
Traveled:
119nm/3:35
Distance/Time
To Go:
Arrived

Flight Plot

Page will automatically refresh every two minutes.

Flight plan parsing failed; only flown route is shown


Map Options




Map Legend


Flown Route
Filed Route
Departure Airport
Arrival Airport
Navaid (VOR, NDB)
Fix

Horizontal Profiles

Position Reports

Time Latitude Longitude Heading Altitude Ground
Speed
23-Oct-18 13:29 48.116169 -123.491943 12 285ft 0kts
23-Oct-18 13:30 48.116169 -123.491943 12 285ft 0kts
23-Oct-18 13:31 48.116169 -123.491943 12 285ft 0kts
23-Oct-18 13:32 48.116169 -123.491943 12 285ft 0kts
23-Oct-18 13:33 48.116169 -123.491943 12 285ft 0kts
23-Oct-18 13:34 48.116169 -123.491943 12 285ft 0kts
23-Oct-18 13:35 48.116169 -123.491943 12 285ft 0kts
23-Oct-18 13:36 48.116169 -123.491943 12 285ft 0kts
23-Oct-18 13:37 48.116169 -123.491943 12 285ft 0kts
23-Oct-18 13:38 48.116169 -123.491943 12 285ft 0kts
23-Oct-18 13:39 48.116169 -123.491943 12 285ft 0kts
23-Oct-18 13:40 48.116169 -123.491943 12 285ft 0kts
23-Oct-18 13:41 48.116169 -123.491943 12 285ft 0kts
23-Oct-18 13:42 48.116169 -123.491943 12 285ft 0kts
23-Oct-18 13:43 48.116169 -123.491943 12 285ft 0kts
23-Oct-18 13:44 48.116169 -123.491943 12 285ft 0kts
23-Oct-18 13:45 48.116169 -123.491943 12 285ft 0kts
23-Oct-18 13:46 48.116169 -123.491943 12 285ft 0kts
23-Oct-18 13:47 48.116375 -123.491865 23 285ft 2kts
23-Oct-18 13:48 48.116413 -123.489763 92 290ft 4kts
23-Oct-18 13:49 48.116019 -123.487440 104 298ft 4kts
23-Oct-18 13:50 48.115936 -123.486953 105 299ft 0kts
23-Oct-18 13:51 48.115936 -123.486953 105 299ft 0kts
23-Oct-18 13:52 48.115936 -123.486953 105 299ft 0kts
23-Oct-18 13:53 48.115936 -123.486953 105 299ft 0kts
23-Oct-18 13:54 48.115936 -123.486953 105 299ft 0kts
23-Oct-18 13:55 48.115936 -123.486953 105 299ft 0kts
23-Oct-18 13:56 48.115936 -123.486953 105 299ft 0kts
23-Oct-18 13:57 48.115936 -123.486953 105 299ft 0kts
23-Oct-18 13:58 48.115936 -123.486953 105 299ft 0kts
23-Oct-18 13:59 48.115936 -123.486953 105 299ft 0kts
23-Oct-18 14:00 48.115936 -123.486953 105 299ft 0kts
23-Oct-18 14:01 48.116393 -123.486487 10 299ft 11kts
23-Oct-18 14:02 48.122163 -123.514562 289 1201ft 115kts
23-Oct-18 14:03 48.133348 -123.558452 300 3388ft 114kts
23-Oct-18 14:04 48.160888 -123.545281 94 3078ft 155kts
23-Oct-18 14:05 48.152057 -123.484219 106 1885ft 140kts
23-Oct-18 14:06 48.136679 -123.438644 158 910ft 115kts
23-Oct-18 14:07 48.110562 -123.452838 245 952ft 91kts
23-Oct-18 14:08 48.116991 -123.488327 284 313ft 85kts
23-Oct-18 14:09 48.118187 -123.501700 101 269ft 12kts
23-Oct-18 14:10 48.117359 -123.496927 100 268ft 11kts
23-Oct-18 14:11 48.116963 -123.493054 131 280ft 2kts
23-Oct-18 14:12 48.116278 -123.492272 191 283ft 0kts
23-Oct-18 14:13 48.116278 -123.492272 191 284ft 0kts
23-Oct-18 14:14 48.116278 -123.492272 191 284ft 0kts
23-Oct-18 14:15 48.116278 -123.492272 191 284ft 0kts
23-Oct-18 14:16 48.116278 -123.492272 191 284ft 0kts
23-Oct-18 14:17 48.116278 -123.492272 191 284ft 0kts
23-Oct-18 14:18 48.116278 -123.492272 191 284ft 0kts
23-Oct-18 14:19 48.116278 -123.492272 191 284ft 0kts
23-Oct-18 14:20 48.116278 -123.492272 191 284ft 0kts
23-Oct-18 14:21 48.116278 -123.492272 191 284ft 0kts
23-Oct-18 14:22 48.116278 -123.492272 191 284ft 0kts
23-Oct-18 14:23 48.116278 -123.492272 191 284ft 0kts
23-Oct-18 14:24 48.116278 -123.492272 191 284ft 0kts
23-Oct-18 14:25 48.116278 -123.492272 191 284ft 0kts
23-Oct-18 14:30 48.116276 -123.492272 191 284ft 0kts
23-Oct-18 14:31 48.116276 -123.492272 191 284ft 0kts
23-Oct-18 14:32 48.116276 -123.492272 191 284ft 0kts
23-Oct-18 14:33 48.116276 -123.492272 191 284ft 0kts
23-Oct-18 14:34 48.116276 -123.492272 191 284ft 0kts
23-Oct-18 14:35 48.116276 -123.492272 191 284ft 0kts
23-Oct-18 14:47 48.116276 -123.492272 191 284ft 0kts
23-Oct-18 14:48 48.116276 -123.492271 191 284ft 0kts
23-Oct-18 14:49 48.116276 -123.492272 191 284ft 0kts
23-Oct-18 14:50 48.116276 -123.492272 191 284ft 0kts
23-Oct-18 14:51 48.116276 -123.492272 191 284ft 0kts
23-Oct-18 14:52 48.116276 -123.492272 191 284ft 0kts
23-Oct-18 14:53 48.116276 -123.492272 191 284ft 0kts
23-Oct-18 14:54 48.116276 -123.492272 191 284ft 0kts
23-Oct-18 14:55 48.116276 -123.492272 191 284ft 0kts
23-Oct-18 14:56 48.116276 -123.492272 191 284ft 0kts
23-Oct-18 14:57 48.116276 -123.492272 191 284ft 0kts
23-Oct-18 14:58 48.116276 -123.492272 191 284ft 0kts
23-Oct-18 14:59 48.116276 -123.492272 191 284ft 0kts
23-Oct-18 15:00 48.116276 -123.492272 191 284ft 0kts
23-Oct-18 15:01 48.116276 -123.492272 191 284ft 0kts
23-Oct-18 15:02 48.116276 -123.492272 191 284ft 0kts
23-Oct-18 15:03 48.116276 -123.492272 191 284ft 0kts
23-Oct-18 15:04 48.116276 -123.492272 191 284ft 0kts
23-Oct-18 15:05 48.116276 -123.492272 191 284ft 0kts
23-Oct-18 15:06 48.116276 -123.492272 191 284ft 0kts
23-Oct-18 15:07 48.116276 -123.492272 191 284ft 0kts
23-Oct-18 15:08 48.116276 -123.492272 191 284ft 0kts
23-Oct-18 15:09 48.116276 -123.492272 191 284ft 0kts
23-Oct-18 15:10 48.116276 -123.492272 191 284ft 0kts
23-Oct-18 15:11 48.116276 -123.492272 191 284ft 0kts
23-Oct-18 15:12 48.116276 -123.492272 191 284ft 0kts
23-Oct-18 15:13 48.116276 -123.492272 191 284ft 0kts
23-Oct-18 15:14 48.116276 -123.492272 191 284ft 0kts
23-Oct-18 15:15 48.116276 -123.492272 191 284ft 0kts
23-Oct-18 15:16 48.116276 -123.492272 191 284ft 0kts
23-Oct-18 15:17 48.116276 -123.492272 191 284ft 0kts
23-Oct-18 15:18 48.116276 -123.492272 191 284ft 0kts
23-Oct-18 15:19 48.116276 -123.492272 191 284ft 0kts
23-Oct-18 15:20 48.116276 -123.492272 191 284ft 0kts
23-Oct-18 15:21 48.116276 -123.492272 191 284ft 0kts
23-Oct-18 15:22 48.116276 -123.492272 191 284ft 0kts
23-Oct-18 15:23 48.116276 -123.492272 191 284ft 0kts
23-Oct-18 15:24 48.116276 -123.492272 191 284ft 0kts
23-Oct-18 15:25 48.116276 -123.492272 191 284ft 0kts
23-Oct-18 15:26 48.116276 -123.492272 191 284ft 0kts
23-Oct-18 15:27 48.116276 -123.492272 191 284ft 0kts
23-Oct-18 15:28 48.116276 -123.492272 191 284ft 0kts
23-Oct-18 15:29 48.116276 -123.492272 191 284ft 0kts
23-Oct-18 15:30 48.116276 -123.492272 191 284ft 0kts
23-Oct-18 15:31 48.116276 -123.492272 191 284ft 0kts
23-Oct-18 15:32 48.116276 -123.492272 191 284ft 0kts
23-Oct-18 15:33 48.116276 -123.492272 191 284ft 0kts
23-Oct-18 15:34 48.116276 -123.492272 191 284ft 0kts
23-Oct-18 15:35 48.116276 -123.492272 191 284ft 0kts
23-Oct-18 15:36 48.116276 -123.492272 191 284ft 0kts
23-Oct-18 15:37 48.116276 -123.492272 191 284ft 0kts
23-Oct-18 15:38 48.116276 -123.492272 191 284ft 0kts
23-Oct-18 15:39 48.116276 -123.492272 191 284ft 0kts
23-Oct-18 15:40 48.116276 -123.492272 191 284ft 0kts
23-Oct-18 15:41 48.116276 -123.492272 191 284ft 0kts
23-Oct-18 15:42 48.116276 -123.492272 191 284ft 0kts
23-Oct-18 15:43 48.116276 -123.492272 191 284ft 0kts
23-Oct-18 15:44 48.116276 -123.492272 191 284ft 0kts
23-Oct-18 15:45 48.116276 -123.492272 191 284ft 0kts
23-Oct-18 15:46 48.116276 -123.492272 191 284ft 0kts
23-Oct-18 15:47 48.116276 -123.492272 191 284ft 0kts
23-Oct-18 15:48 48.116276 -123.492272 191 284ft 0kts
23-Oct-18 15:49 48.116276 -123.492272 191 284ft 0kts
23-Oct-18 15:50 48.116276 -123.492272 191 284ft 0kts
23-Oct-18 15:51 48.116276 -123.492272 191 284ft 0kts
23-Oct-18 15:52 48.116276 -123.492272 191 284ft 0kts
23-Oct-18 15:53 48.116276 -123.492272 191 284ft 0kts
23-Oct-18 15:54 48.116276 -123.492272 191 284ft 0kts
23-Oct-18 15:55 48.116276 -123.492272 191 284ft 0kts
23-Oct-18 15:56 48.116276 -123.492272 191 284ft 0kts
23-Oct-18 15:57 48.116276 -123.492272 191 284ft 0kts
23-Oct-18 15:58 48.116276 -123.492272 191 284ft 0kts
23-Oct-18 15:59 48.116276 -123.492272 191 284ft 0kts
23-Oct-18 16:00 48.116276 -123.492272 191 284ft 0kts
23-Oct-18 16:01 48.116276 -123.492272 191 284ft 0kts
23-Oct-18 16:02 48.116276 -123.492272 191 284ft 0kts
23-Oct-18 16:03 48.116276 -123.492272 191 284ft 0kts
23-Oct-18 16:04 48.116276 -123.492272 191 284ft 0kts
23-Oct-18 16:05 48.116276 -123.492272 191 284ft 0kts
23-Oct-18 16:06 48.116276 -123.492272 191 284ft 0kts
23-Oct-18 16:07 48.116276 -123.492272 191 284ft 0kts
23-Oct-18 16:08 48.116276 -123.492272 191 284ft 0kts
23-Oct-18 16:09 48.116276 -123.492272 191 284ft 0kts
23-Oct-18 16:10 48.116276 -123.492272 191 284ft 0kts
23-Oct-18 16:11 48.116276 -123.492272 191 284ft 0kts
23-Oct-18 16:12 48.116276 -123.492271 191 284ft 0kts
23-Oct-18 16:13 48.116276 -123.492272 191 284ft 0kts
23-Oct-18 16:14 48.116276 -123.492272 191 284ft 0kts
23-Oct-18 16:15 48.116276 -123.492272 191 284ft 0kts
23-Oct-18 16:16 48.116276 -123.492272 191 284ft 0kts
23-Oct-18 16:17 48.116276 -123.492272 191 284ft 0kts
23-Oct-18 16:18 48.116276 -123.492272 191 284ft 0kts
23-Oct-18 16:19 48.116276 -123.492272 191 284ft 0kts
23-Oct-18 16:20 48.116276 -123.492272 191 284ft 0kts
23-Oct-18 16:21 48.116276 -123.492272 191 284ft 0kts
23-Oct-18 16:22 48.116276 -123.492272 191 284ft 0kts
23-Oct-18 16:23 48.116276 -123.492271 191 284ft 0kts
23-Oct-18 16:24 48.116276 -123.492271 191 283ft 0kts
23-Oct-18 16:25 48.116276 -123.492271 191 283ft 0kts
23-Oct-18 16:26 48.116276 -123.492271 191 283ft 0kts
23-Oct-18 16:27 48.116276 -123.492271 191 283ft 0kts
23-Oct-18 16:28 48.116276 -123.492271 191 283ft 0kts
23-Oct-18 16:29 48.116276 -123.492272 191 283ft 0kts
23-Oct-18 16:30 48.116276 -123.492272 191 283ft 0kts
23-Oct-18 16:31 48.116276 -123.492272 191 283ft 0kts
23-Oct-18 16:32 48.116348 -123.491233 104 287ft 5kts
23-Oct-18 16:33 48.116331 -123.489261 104 292ft 4kts
23-Oct-18 16:34 48.115916 -123.486876 104 299ft 0kts
23-Oct-18 16:35 48.115916 -123.486876 104 299ft 0kts
23-Oct-18 16:36 48.115916 -123.486876 104 299ft 0kts
23-Oct-18 16:37 48.115916 -123.486876 104 299ft 0kts
23-Oct-18 16:38 48.115916 -123.486876 104 299ft 0kts
23-Oct-18 16:39 48.115916 -123.486876 104 299ft 0kts
23-Oct-18 16:40 48.116820 -123.487271 282 297ft 17kts
23-Oct-18 16:41 48.124561 -123.524926 315 1570ft 124kts
23-Oct-18 16:42 48.140961 -123.504277 109 3513ft 136kts
23-Oct-18 16:43 48.136949 -123.447885 92 5354ft 144kts
23-Oct-18 16:44 48.137425 -123.389835 89 7443ft 140kts
23-Oct-18 16:45 48.137866 -123.332173 95 9434ft 141kts
23-Oct-18 16:46 48.138125 -123.282049 99 10825ft 149kts
23-Oct-18 16:47 48.138206 -123.206013 111 12507ft 158kts
23-Oct-18 16:48 48.115201 -123.210128 233 13553ft 151kts
23-Oct-18 16:49 48.079564 -123.262509 217 15023ft 174kts
23-Oct-18 16:50 48.042366 -123.303911 215 15017ft 219kts
23-Oct-18 16:51 47.990877 -123.358938 215 15002ft 235kts
23-Oct-18 16:52 47.928190 -123.425489 214 14998ft 240kts
23-Oct-18 16:53 47.883723 -123.471394 205 14995ft 241kts
23-Oct-18 16:54 47.816383 -123.475546 182 15007ft 246kts
23-Oct-18 16:55 47.746855 -123.475077 182 15017ft 251kts
23-Oct-18 16:56 47.677169 -123.474371 182 15024ft 251kts
23-Oct-18 16:57 47.608927 -123.473246 182 15028ft 243kts
23-Oct-18 16:58 47.541514 -123.482754 195 14739ft 244kts
23-Oct-18 16:59 47.475964 -123.479364 181 14757ft 244kts
23-Oct-18 17:00 47.409744 -123.475428 181 15020ft 234kts
23-Oct-18 17:01 47.347011 -123.471118 183 15029ft 228kts
23-Oct-18 17:02 47.281319 -123.470809 182 15031ft 243kts
23-Oct-18 17:03 47.213068 -123.470451 182 15027ft 247kts
23-Oct-18 17:04 47.144660 -123.471575 197 14993ft 244kts
23-Oct-18 17:05 47.109573 -123.554491 244 15027ft 248kts
23-Oct-18 17:06 47.083845 -123.648433 245 15025ft 249kts
23-Oct-18 17:07 47.058414 -123.742272 244 15023ft 244kts
23-Oct-18 17:08 47.034002 -123.832055 244 15025ft 236kts
23-Oct-18 17:09 47.009070 -123.923446 244 15030ft 248kts
23-Oct-18 17:10 46.983289 -124.017547 244 15026ft 248kts
23-Oct-18 17:11 46.957576 -124.111048 245 15026ft 248kts
23-Oct-18 17:12 46.898018 -124.130958 172 15030ft 252kts
23-Oct-18 17:13 46.831748 -124.109207 170 15031ft 255kts
23-Oct-18 17:14 46.762710 -124.085416 170 15031ft 256kts
23-Oct-18 17:15 46.691888 -124.061045 170 13806ft 266kts
23-Oct-18 17:16 46.622417 -124.037085 170 12337ft 242kts
23-Oct-18 17:17 46.561557 -124.016254 170 10286ft 212kts
23-Oct-18 17:18 46.507326 -123.997734 169 8293ft 199kts
23-Oct-18 17:19 46.475747 -123.948118 91 6816ft 194kts
23-Oct-18 17:20 46.478257 -123.870892 94 5677ft 188kts
23-Oct-18 17:21 46.472918 -123.795998 104 4592ft 194kts
23-Oct-18 17:22 46.457620 -123.717248 113 4391ft 204kts
23-Oct-18 17:23 46.432874 -123.643710 123 4394ft 202kts
23-Oct-18 17:24 46.399684 -123.578113 132 4400ft 202kts
23-Oct-18 17:25 46.359011 -123.522114 142 4404ft 202kts
23-Oct-18 17:26 46.312401 -123.477688 152 4414ft 201kts
23-Oct-18 17:27 46.261835 -123.446198 161 4428ft 200kts
23-Oct-18 17:28 46.207793 -123.427815 171 4439ft 199kts
23-Oct-18 17:29 46.158276 -123.441948 249 4437ft 205kts
23-Oct-18 17:30 46.137146 -123.518101 244 4421ft 204kts
23-Oct-18 17:31 46.141342 -123.596350 266 3724ft 187kts
23-Oct-18 17:32 46.144673 -123.659691 270 2885ft 124kts
23-Oct-18 17:33 46.148849 -123.723895 272 2031ft 177kts
23-Oct-18 17:34 46.153501 -123.794481 272 1174ft 148kts
23-Oct-18 17:35 46.156183 -123.835300 269 514ft 92kts
23-Oct-18 17:36 46.158509 -123.869925 270 13ft 81kts
23-Oct-18 17:37 46.159290 -123.882651 85 18ft 12kts
23-Oct-18 17:38 46.157463 -123.882671 114 20ft 13kts
23-Oct-18 17:39 46.156226 -123.881117 147 19ft 10kts
23-Oct-18 17:40 46.155089 -123.880124 240 19ft 0kts
23-Oct-18 17:41 46.155089 -123.880124 239 19ft 0kts
23-Oct-18 17:42 46.155089 -123.880124 239 20ft 0kts
23-Oct-18 17:43 46.155089 -123.880124 239 20ft 0kts
23-Oct-18 17:44 46.155089 -123.880124 239 20ft 0kts
23-Oct-18 17:45 46.155089 -123.880124 239 20ft 0kts
23-Oct-18 17:46 46.155089 -123.880124 239 20ft 0kts
23-Oct-18 17:47 46.155089 -123.880124 239 20ft 0kts
23-Oct-18 17:48 46.155089 -123.880124 239 20ft 0kts
23-Oct-18 17:49 46.155089 -123.880124 239 20ft 0kts
23-Oct-18 17:50 46.155089 -123.880124 239 20ft 0kts
23-Oct-18 17:51 46.155089 -123.880124 239 20ft 0kts
23-Oct-18 17:52 46.155089 -123.880124 239 20ft 0kts

Navigation Log

Ident Type
Flight plan parsing failed, navigation log unavailable